sensor_id;sensor_type;location;lat;lon;timestamp;pressure;altitude;pressure_sealevel;temperature;humidity
57847;BME280;43675;50.030;21.952;2023-06-01T00:00:38;98965.05;;;8.31;71.42
57847;BME280;43675;50.030;21.952;2023-06-01T00:03:24;98962.04;;;8.31;71.50
57847;BME280;43675;50.030;21.952;2023-06-01T00:05:51;98961.31;;;8.33;71.48
57847;BME280;43675;50.030;21.952;2023-06-01T00:08:17;98963.93;;;8.30;71.65
57847;BME280;43675;50.030;21.952;2023-06-01T00:10:44;98960.92;;;8.27;71.79
57847;BME280;43675;50.030;21.952;2023-06-01T00:13:11;98962.73;;;8.24;71.84
57847;BME280;43675;50.030;21.952;2023-06-01T00:15:37;98958.05;;;8.20;71.95
57847;BME280;43675;50.030;21.952;2023-06-01T00:18:04;98954.97;;;8.16;72.19
57847;BME280;43675;50.030;21.952;2023-06-01T00:20:30;98955.18;;;8.12;72.19
57847;BME280;43675;50.030;21.952;2023-06-01T00:22:57;98954.57;;;8.08;72.26
57847;BME280;43675;50.030;21.952;2023-06-01T00:25:23;98949.48;;;8.03;72.51
57847;BME280;43675;50.030;21.952;2023-06-01T00:27:50;98951.33;;;8.00;72.59
57847;BME280;43675;50.030;21.952;2023-06-01T00:30:16;98948.05;;;7.96;72.83
57847;BME280;43675;50.030;21.952;2023-06-01T00:32:43;98946.88;;;7.94;73.10
57847;BME280;43675;50.030;21.952;2023-06-01T00:35:10;98947.96;;;7.93;73.04
57847;BME280;43675;50.030;21.952;2023-06-01T00:37:36;98949.64;;;7.91;73.19
57847;BME280;43675;50.030;21.952;2023-06-01T00:40:03;98951.18;;;7.88;73.46
57847;BME280;43675;50.030;21.952;2023-06-01T00:42:30;98947.70;;;7.86;73.48
57847;BME280;43675;50.030;21.952;2023-06-01T00:44:57;98946.79;;;7.85;73.53
57847;BME280;43675;50.030;21.952;2023-06-01T00:47:23;98946.80;;;7.86;73.81
57847;BME280;43675;50.030;21.952;2023-06-01T00:49:50;98948.61;;;7.88;73.83
57847;BME280;43675;50.030;21.952;2023-06-01T00:52:17;98944.47;;;7.88;74.00
57847;BME280;43675;50.030;21.952;2023-06-01T00:54:44;98946.45;;;7.89;73.81
57847;BME280;43675;50.030;21.952;2023-06-01T00:57:11;98947.60;;;7.90;73.78
57847;BME280;43675;50.030;21.952;2023-06-01T00:59:38;98945.47;;;7.90;73.72
57847;BME280;43675;50.030;21.952;2023-06-01T01:02:05;98945.27;;;7.90;73.89
57847;BME280;43675;50.030;21.952;2023-06-01T01:04:32;98939.72;;;7.90;73.79
57847;BME280;43675;50.030;21.952;2023-06-01T01:07:02;98938.24;;;7.91;73.73
57847;BME280;43675;50.030;21.952;2023-06-01T01:12:04;98934.84;;;7.95;73.71
57847;BME280;43675;50.030;21.952;2023-06-01T01:14:40;98937.25;;;7.98;73.79
57847;BME280;43675;50.030;21.952;2023-06-01T01:17:17;98936.84;;;8.03;73.62
57847;BME280;43675;50.030;21.952;2023-06-01T01:20:01;98931.95;;;8.08;73.39
57847;BME280;43675;50.030;21.952;2023-06-01T01:25:38;98931.20;;;8.32;72.74
57847;BME280;43675;50.030;21.952;2023-06-01T01:30:57;98930.80;;;8.38;72.46
57847;BME280;43675;50.030;21.952;2023-06-01T01:33:26;98931.16;;;8.38;72.40
57847;BME280;43675;50.030;21.952;2023-06-01T01:35:53;98930.67;;;8.43;72.32
57847;BME280;43675;50.030;21.952;2023-06-01T01:38:20;98929.03;;;8.39;72.13
57847;BME280;43675;50.030;21.952;2023-06-01T01:40:47;98929.70;;;8.36;72.36
57847;BME280;43675;50.030;21.952;2023-06-01T01:43:13;98926.80;;;8.32;72.49
57847;BME280;43675;50.030;21.952;2023-06-01T01:45:41;98927.94;;;8.28;72.60
57847;BME280;43675;50.030;21.952;2023-06-01T01:48:18;98926.88;;;8.26;72.55
57847;BME280;43675;50.030;21.952;2023-06-01T01:50:53;98931.32;;;8.24;72.47
57847;BME280;43675;50.030;21.952;2023-06-01T01:53:22;98928.59;;;8.23;72.48
57847;BME280;43675;50.030;21.952;2023-06-01T01:55:51;98926.13;;;8.19;72.00
57847;BME280;43675;50.030;21.952;2023-06-01T01:58:18;98927.66;;;8.17;71.88
57847;BME280;43675;50.030;21.952;2023-06-01T02:00:45;98929.36;;;8.13;72.21
57847;BME280;43675;50.030;21.952;2023-06-01T02:03:14;98923.93;;;8.08;72.26
57847;BME280;43675;50.030;21.952;2023-06-01T02:05:42;98925.81;;;8.06;72.43
57847;BME280;43675;50.030;21.952;2023-06-01T02:08:08;98929.65;;;8.02;72.58
57847;BME280;43675;50.030;21.952;2023-06-01T02:10:35;98925.21;;;7.99;72.69
57847;BME280;43675;50.030;21.952;2023-06-01T02:13:01;98923.01;;;7.97;72.67
57847;BME280;43675;50.030;21.952;2023-06-01T02:15:28;98921.67;;;7.95;72.86
57847;BME280;43675;50.030;21.952;2023-06-01T02:17:55;98921.91;;;7.94;73.09
57847;BME280;43675;50.030;21.952;2023-06-01T02:20:21;98925.10;;;7.96;73.10
57847;BME280;43675;50.030;21.952;2023-06-01T02:22:48;98924.23;;;7.97;72.97
57847;BME280;43675;50.030;21.952;2023-06-01T02:25:14;98921.39;;;7.97;73.05
57847;BME280;43675;50.030;21.952;2023-06-01T02:27:41;98920.71;;;7.97;73.10
57847;BME280;43675;50.030;21.952;2023-06-01T02:30:08;98918.48;;;7.97;73.10
57847;BME280;43675;50.030;21.952;2023-06-01T02:32:34;98917.91;;;7.98;73.09
57847;BME280;43675;50.030;21.952;2023-06-01T02:35:01;98916.84;;;7.98;73.25
57847;BME280;43675;50.030;21.952;2023-06-01T02:37:27;98913.98;;;7.99;73.30
57847;BME280;43675;50.030;21.952;2023-06-01T02:39:54;98910.53;;;8.00;73.20
57847;BME280;43675;50.030;21.952;2023-06-01T02:42:21;98909.48;;;8.00;73.26
57847;BME280;43675;50.030;21.952;2023-06-01T02:44:47;98907.04;;;7.99;73.29
57847;BME280;43675;50.030;21.952;2023-06-01T02:47:14;98906.17;;;7.99;73.29
57847;BME280;43675;50.030;21.952;2023-06-01T02:49:40;98904.12;;;8.00;73.37
57847;BME280;43675;50.030;21.952;2023-06-01T02:52:07;98904.29;;;8.00;73.32
57847;BME280;43675;50.030;21.952;2023-06-01T02:54:33;98906.14;;;8.03;73.63
57847;BME280;43675;50.030;21.952;2023-06-01T02:57:00;98907.02;;;8.22;73.29
57847;BME280;43675;50.030;21.952;2023-06-01T02:59:26;98905.38;;;8.26;73.11
57847;BME280;43675;50.030;21.952;2023-06-01T03:01:53;98903.53;;;8.28;73.08
57847;BME280;43675;50.030;21.952;2023-06-01T03:04:20;98903.13;;;8.30;73.18
57847;BME280;43675;50.030;21.952;2023-06-01T03:06:46;98901.58;;;8.32;73.30
57847;BME280;43675;50.030;21.952;2023-06-01T03:09:13;98900.47;;;8.37;73.25
57847;BME280;43675;50.030;21.952;2023-06-01T03:11:42;98899.29;;;8.45;73.34
57847;BME280;43675;50.030;21.952;2023-06-01T03:14:09;98901.36;;;8.53;73.14
57847;BME280;43675;50.030;21.952;2023-06-01T03:16:35;98898.70;;;8.63;73.04
57847;BME280;43675;50.030;21.952;2023-06-01T03:19:02;98897.83;;;8.74;73.09
57847;BME280;43675;50.030;21.952;2023-06-01T03:21:28;98899.41;;;8.85;73.06
57847;BME280;43675;50.030;21.952;2023-06-01T03:23:55;98895.10;;;8.96;72.94
57847;BME280;43675;50.030;21.952;2023-06-01T03:26:21;98894.61;;;9.07;72.94
57847;BME280;43675;50.030;21.952;2023-06-01T03:28:48;98892.92;;;9.18;72.66
57847;BME280;43675;50.030;21.952;2023-06-01T03:31:14;98890.79;;;9.28;72.54
57847;BME280;43675;50.030;21.952;2023-06-01T03:33:41;98885.08;;;9.38;72.36
57847;BME280;43675;50.030;21.952;2023-06-01T03:36:07;98886.02;;;9.47;72.39
57847;BME280;43675;50.030;21.952;2023-06-01T03:38:34;98884.51;;;9.58;72.00
57847;BME280;43675;50.030;21.952;2023-06-01T03:41:01;98886.34;;;9.66;72.13
57847;BME280;43675;50.030;21.952;2023-06-01T03:43:27;98885.91;;;9.76;71.79
57847;BME280;43675;50.030;21.952;2023-06-01T03:45:56;98877.77;;;9.86;71.72
57847;BME280;43675;50.030;21.952;2023-06-01T03:48:22;98876.08;;;9.96;71.46
57847;BME280;43675;50.030;21.952;2023-06-01T03:50:49;98877.73;;;10.06;71.40
57847;BME280;43675;50.030;21.952;2023-06-01T03:53:15;98878.67;;;10.16;71.21
57847;BME280;43675;50.030;21.952;2023-06-01T03:55:42;98884.64;;;10.24;71.05
57847;BME280;43675;50.030;21.952;2023-06-01T03:58:08;98879.39;;;10.33;70.91
57847;BME280;43675;50.030;21.952;2023-06-01T04:00:35;98882.27;;;10.44;70.78
57847;BME280;43675;50.030;21.952;2023-06-01T04:03:02;98881.80;;;10.56;70.71
57847;BME280;43675;50.030;21.952;2023-06-01T04:05:29;98880.71;;;10.64;70.63
57847;BME280;43675;50.030;21.952;2023-06-01T04:07:56;98880.27;;;10.74;70.54
57847;BME280;43675;50.030;21.952;2023-06-01T04:10:23;98880.91;;;10.84;70.28
57847;BME280;43675;50.030;21.952;2023-06-01T04:12:50;98879.52;;;10.94;70.24
57847;BME280;43675;50.030;21.952;2023-06-01T04:15:19;98875.67;;;11.05;70.10
57847;BME280;43675;50.030;21.952;2023-06-01T04:17:46;98873.11;;;11.16;69.80
57847;BME280;43675;50.030;21.952;2023-06-01T04:20:17;98875.83;;;11.26;69.73
57847;BME280;43675;50.030;21.952;2023-06-01T04:22:45;98870.41;;;11.38;69.56
57847;BME280;43675;50.030;21.952;2023-06-01T04:25:14;98869.61;;;11.53;69.21
57847;BME280;43675;50.030;21.952;2023-06-01T04:27:46;98869.45;;;11.66;68.92
57847;BME280;43675;50.030;21.952;2023-06-01T04:30:14;98866.55;;;11.78;68.74
57847;BME280;43675;50.030;21.952;2023-06-01T04:32:41;98868.52;;;11.90;68.64
57847;BME280;43675;50.030;21.952;2023-06-01T04:35:08;98863.54;;;12.04;68.31
57847;BME280;43675;50.030;21.952;2023-06-01T04:37:38;98862.33;;;12.16;68.23
57847;BME280;43675;50.030;21.952;2023-06-01T04:40:06;98861.58;;;12.29;68.02
57847;BME280;43675;50.030;21.952;2023-06-01T04:42:34;98860.03;;;12.45;67.80
57847;BME280;43675;50.030;21.952;2023-06-01T04:45:01;98858.86;;;12.58;67.70
57847;BME280;43675;50.030;21.952;2023-06-01T04:47:28;98855.39;;;12.73;67.36
57847;BME280;43675;50.030;21.952;2023-06-01T04:49:55;98850.83;;;12.86;67.04
57847;BME280;43675;50.030;21.952;2023-06-01T04:52:22;98850.88;;;12.99;67.10
57847;BME280;43675;50.030;21.952;2023-06-01T04:54:49;98851.81;;;13.12;66.92
57847;BME280;43675;50.030;21.952;2023-06-01T04:57:15;98853.10;;;13.25;66.68
57847;BME280;43675;50.030;21.952;2023-06-01T04:59:42;98848.23;;;13.38;66.30
57847;BME280;43675;50.030;21.952;2023-06-01T05:02:09;98846.06;;;13.51;65.98
57847;BME280;43675;50.030;21.952;2023-06-01T05:04:35;98846.70;;;13.65;65.67
57847;BME280;43675;50.030;21.952;2023-06-01T05:07:03;98841.73;;;13.78;65.49
57847;BME280;43675;50.030;21.952;2023-06-01T05:09:30;98841.16;;;13.91;65.00
57847;BME280;43675;50.030;21.952;2023-06-01T05:11:57;98836.84;;;14.04;64.72
57847;BME280;43675;50.030;21.952;2023-06-01T05:14:23;98838.31;;;14.15;64.51
57847;BME280;43675;50.030;21.952;2023-06-01T05:16:50;98839.77;;;14.27;64.15
57847;BME280;43675;50.030;21.952;2023-06-01T05:19:17;98838.26;;;14.39;64.10
57847;BME280;43675;50.030;21.952;2023-06-01T05:21:43;98839.52;;;14.52;63.83
57847;BME280;43675;50.030;21.952;2023-06-01T05:24:10;98837.96;;;14.64;63.84
57847;BME280;43675;50.030;21.952;2023-06-01T05:26:37;98837.09;;;14.77;63.82
57847;BME280;43675;50.030;21.952;2023-06-01T05:29:04;98837.48;;;14.89;63.51
57847;BME280;43675;50.030;21.952;2023-06-01T05:31:30;98834.89;;;15.02;63.20
57847;BME280;43675;50.030;21.952;2023-06-01T05:33:57;98833.71;;;15.16;62.91
57847;BME280;43675;50.030;21.952;2023-06-01T05:36:24;98832.77;;;15.29;62.81
57847;BME280;43675;50.030;21.952;2023-06-01T05:38:50;98831.17;;;15.41;62.68
57847;BME280;43675;50.030;21.952;2023-06-01T05:41:17;98832.80;;;15.54;62.39
57847;BME280;43675;50.030;21.952;2023-06-01T05:43:43;98827.13;;;15.66;62.14
57847;BME280;43675;50.030;21.952;2023-06-01T05:46:10;98827.08;;;15.79;61.96
57847;BME280;43675;50.030;21.952;2023-06-01T05:48:36;98824.83;;;15.93;61.93
57847;BME280;43675;50.030;21.952;2023-06-01T05:51:03;98818.59;;;16.05;61.71
57847;BME280;43675;50.030;21.952;2023-06-01T05:53:30;98821.50;;;16.18;61.51
57847;BME280;43675;50.030;21.952;2023-06-01T05:55:56;98820.48;;;16.30;61.09
57847;BME280;43675;50.030;21.952;2023-06-01T05:58:23;98820.73;;;16.42;60.89
57847;BME280;43675;50.030;21.952;2023-06-01T06:00:49;98820.39;;;16.55;60.54
57847;BME280;43675;50.030;21.952;2023-06-01T06:03:16;98820.56;;;16.70;60.05
57847;BME280;43675;50.030;21.952;2023-06-01T06:05:42;98819.98;;;16.82;59.44
57847;BME280;43675;50.030;21.952;2023-06-01T06:08:09;98817.30;;;16.94;59.08
57847;BME280;43675;50.030;21.952;2023-06-01T06:10:36;98816.85;;;17.06;58.80
57847;BME280;43675;50.030;21.952;2023-06-01T06:13:02;98817.40;;;17.20;58.55
57847;BME280;43675;50.030;21.952;2023-06-01T06:15:29;98816.91;;;17.34;58.19
57847;BME280;43675;50.030;21.952;2023-06-01T06:17:55;98814.02;;;17.48;58.13
57847;BME280;43675;50.030;21.952;2023-06-01T06:20:22;98811.86;;;17.62;57.98
57847;BME280;43675;50.030;21.952;2023-06-01T06:22:50;98812.83;;;17.77;57.61
57847;BME280;43675;50.030;21.952;2023-06-01T06:25:16;98808.71;;;17.91;57.33
57847;BME280;43675;50.030;21.952;2023-06-01T06:27:43;98810.02;;;18.05;57.14
57847;BME280;43675;50.030;21.952;2023-06-01T06:30:10;98806.80;;;18.16;57.00
57847;BME280;43675;50.030;21.952;2023-06-01T06:32:36;98809.57;;;18.30;56.80
57847;BME280;43675;50.030;21.952;2023-06-01T06:35:04;98807.96;;;18.42;56.23
57847;BME280;43675;50.030;21.952;2023-06-01T06:37:30;98806.31;;;18.52;55.53
57847;BME280;43675;50.030;21.952;2023-06-01T06:39:57;98805.51;;;18.61;55.33
57847;BME280;43675;50.030;21.952;2023-06-01T06:42:24;98804.20;;;18.70;54.69
57847;BME280;43675;50.030;21.952;2023-06-01T06:44:50;98804.25;;;18.80;54.40
57847;BME280;43675;50.030;21.952;2023-06-01T06:47:17;98803.88;;;18.91;54.23
57847;BME280;43675;50.030;21.952;2023-06-01T06:49:44;98800.69;;;19.00;53.06
57847;BME280;43675;50.030;21.952;2023-06-01T06:52:11;98800.83;;;19.07;52.61
57847;BME280;43675;50.030;21.952;2023-06-01T06:54:41;98802.07;;;19.18;52.79
57847;BME280;43675;50.030;21.952;2023-06-01T06:57:07;98799.23;;;19.29;52.47
57847;BME280;43675;50.030;21.952;2023-06-01T06:59:34;98797.73;;;19.39;52.13
57847;BME280;43675;50.030;21.952;2023-06-01T07:02:01;98792.89;;;19.51;51.64
57847;BME280;43675;50.030;21.952;2023-06-01T07:04:28;98797.41;;;19.57;51.21
57847;BME280;43675;50.030;21.952;2023-06-01T07:06:55;98796.23;;;19.63;51.16
57847;BME280;43675;50.030;21.952;2023-06-01T07:09:21;98794.23;;;19.67;50.93
57847;BME280;43675;50.030;21.952;2023-06-01T07:11:48;98792.47;;;19.73;50.75
57847;BME280;43675;50.030;21.952;2023-06-01T07:14:15;98789.23;;;19.80;50.42
57847;BME280;43675;50.030;21.952;2023-06-01T07:16:41;98784.48;;;19.86;50.44
57847;BME280;43675;50.030;21.952;2023-06-01T07:19:08;98783.52;;;19.91;49.89
57847;BME280;43675;50.030;21.952;2023-06-01T07:21:37;98781.20;;;19.92;49.63
57847;BME280;43675;50.030;21.952;2023-06-01T07:24:05;98782.90;;;19.97;49.71
57847;BME280;43675;50.030;21.952;2023-06-01T07:26:31;98774.89;;;20.08;49.65
57847;BME280;43675;50.030;21.952;2023-06-01T07:28:58;98775.75;;;20.18;48.73
57847;BME280;43675;50.030;21.952;2023-06-01T07:31:24;98775.69;;;20.26;48.62
57847;BME280;43675;50.030;21.952;2023-06-01T07:33:51;98772.16;;;20.35;48.83
57847;BME280;43675;50.030;21.952;2023-06-01T07:36:18;98773.28;;;20.44;48.15
57847;BME280;43675;50.030;21.952;2023-06-01T07:38:45;98774.44;;;20.52;47.69
57847;BME280;43675;50.030;21.952;2023-06-01T07:41:12;98775.66;;;20.59;47.62
57847;BME280;43675;50.030;21.952;2023-06-01T07:43:38;98775.58;;;20.66;47.38
57847;BME280;43675;50.030;21.952;2023-06-01T07:46:05;98771.59;;;20.71;46.75
57847;BME280;43675;50.030;21.952;2023-06-01T07:48:31;98772.34;;;20.76;46.85
57847;BME280;43675;50.030;21.952;2023-06-01T07:50:58;98770.20;;;20.82;46.75
57847;BME280;43675;50.030;21.952;2023-06-01T07:53:24;98768.26;;;20.87;46.57
57847;BME280;43675;50.030;21.952;2023-06-01T07:55:51;98771.84;;;20.94;46.24
57847;BME280;43675;50.030;21.952;2023-06-01T07:58:18;98767.33;;;21.02;46.12
57847;BME280;43675;50.030;21.952;2023-06-01T08:00:44;98765.16;;;21.11;45.71
57847;BME280;43675;50.030;21.952;2023-06-01T08:03:11;98761.70;;;21.20;45.53
57847;BME280;43675;50.030;21.952;2023-06-01T08:05:40;98755.69;;;21.31;44.77
57847;BME280;43675;50.030;21.952;2023-06-01T08:08:06;98753.06;;;21.40;44.26
57847;BME280;43675;50.030;21.952;2023-06-01T08:10:33;98755.43;;;21.46;43.72
57847;BME280;43675;50.030;21.952;2023-06-01T08:12:59;98757.66;;;21.48;42.88
57847;BME280;43675;50.030;21.952;2023-06-01T08:15:26;98754.88;;;21.48;42.88
57847;BME280;43675;50.030;21.952;2023-06-01T08:17:52;98755.82;;;21.52;42.61
57847;BME280;43675;50.030;21.952;2023-06-01T08:20:19;98755.89;;;21.59;42.56
57847;BME280;43675;50.030;21.952;2023-06-01T08:22:46;98749.89;;;21.64;42.07
57847;BME280;43675;50.030;21.952;2023-06-01T08:25:12;98751.33;;;21.71;41.41
57847;BME280;43675;50.030;21.952;2023-06-01T08:27:39;98743.58;;;21.76;40.79
57847;BME280;43675;50.030;21.952;2023-06-01T08:30:07;98740.95;;;21.82;40.72
57847;BME280;43675;50.030;21.952;2023-06-01T08:32:33;98739.23;;;21.86;40.64
57847;BME280;43675;50.030;21.952;2023-06-01T08:35:00;98738.27;;;21.92;40.40
57847;BME280;43675;50.030;21.952;2023-06-01T08:37:27;98726.41;;;22.00;40.42
57847;BME280;43675;50.030;21.952;2023-06-01T08:39:54;98730.31;;;22.10;40.25
57847;BME280;43675;50.030;21.952;2023-06-01T08:42:25;98728.09;;;22.18;39.98
57847;BME280;43675;50.030;21.952;2023-06-01T08:44:57;98723.70;;;22.25;39.98
57847;BME280;43675;50.030;21.952;2023-06-01T08:47:24;98725.69;;;22.35;39.93
57847;BME280;43675;50.030;21.952;2023-06-01T08:49:52;98724.96;;;22.45;39.46
57847;BME280;43675;50.030;21.952;2023-06-01T08:52:20;98721.05;;;22.53;38.94
57847;BME280;43675;50.030;21.952;2023-06-01T08:54:47;98712.77;;;22.60;38.76
57847;BME280;43675;50.030;21.952;2023-06-01T08:57:15;98716.86;;;22.82;38.16
57847;BME280;43675;50.030;21.952;2023-06-01T08:59:42;98709.67;;;22.92;37.79
57847;BME280;43675;50.030;21.952;2023-06-01T09:02:09;98708.02;;;22.93;37.94
57847;BME280;43675;50.030;21.952;2023-06-01T09:04:36;98704.11;;;22.97;38.20
57847;BME280;43675;50.030;21.952;2023-06-01T09:07:03;98702.26;;;23.05;38.00
57847;BME280;43675;50.030;21.952;2023-06-01T09:09:32;98704.67;;;23.09;37.84
57847;BME280;43675;50.030;21.952;2023-06-01T09:14:44;98695.34;;;23.14;37.80
57847;BME280;43675;50.030;21.952;2023-06-01T09:17:13;98691.27;;;23.12;37.25
57847;BME280;43675;50.030;21.952;2023-06-01T09:19:42;98694.66;;;23.13;37.30
57847;BME280;43675;50.030;21.952;2023-06-01T09:22:11;98693.46;;;23.16;37.78
57847;BME280;43675;50.030;21.952;2023-06-01T09:24:38;98687.05;;;23.20;37.11
57847;BME280;43675;50.030;21.952;2023-06-01T09:27:05;98686.89;;;23.21;36.67
57847;BME280;43675;50.030;21.952;2023-06-01T09:29:32;98684.78;;;23.25;36.87
57847;BME280;43675;50.030;21.952;2023-06-01T09:32:00;98684.42;;;23.28;36.72
57847;BME280;43675;50.030;21.952;2023-06-01T09:34:26;98684.55;;;23.30;36.55
57847;BME280;43675;50.030;21.952;2023-06-01T09:36:55;98686.09;;;23.29;36.80
57847;BME280;43675;50.030;21.952;2023-06-01T09:39:23;98682.77;;;23.29;37.03
57847;BME280;43675;50.030;21.952;2023-06-01T09:41:55;98683.17;;;23.25;36.65
57847;BME280;43675;50.030;21.952;2023-06-01T09:44:29;98682.20;;;23.18;36.75
57847;BME280;43675;50.030;21.952;2023-06-01T09:46:57;98672.89;;;23.11;37.04
57847;BME280;43675;50.030;21.952;2023-06-01T09:49:26;98671.85;;;23.07;37.48
57847;BME280;43675;50.030;21.952;2023-06-01T09:54:49;98673.01;;;23.18;37.14
57847;BME280;43675;50.030;21.952;2023-06-01T09:57:22;98671.76;;;23.28;37.09
57847;BME280;43675;50.030;21.952;2023-06-01T09:59:49;98667.86;;;23.39;36.69
57847;BME280;43675;50.030;21.952;2023-06-01T10:02:17;98666.40;;;23.50;36.71
57847;BME280;43675;50.030;21.952;2023-06-01T10:04:47;98664.55;;;23.59;36.60
57847;BME280;43675;50.030;21.952;2023-06-01T10:07:16;98657.63;;;23.66;36.55
57847;BME280;43675;50.030;21.952;2023-06-01T10:09:45;98661.98;;;23.75;36.73
57847;BME280;43675;50.030;21.952;2023-06-01T10:12:13;98657.67;;;23.85;36.61
57847;BME280;43675;50.030;21.952;2023-06-01T10:14:40;98656.59;;;23.94;36.76
57847;BME280;43675;50.030;21.952;2023-06-01T10:17:07;98656.07;;;23.99;35.95
57847;BME280;43675;50.030;21.952;2023-06-01T10:19:36;98656.07;;;24.04;36.24
57847;BME280;43675;50.030;21.952;2023-06-01T10:22:04;98653.98;;;24.09;35.45
57847;BME280;43675;50.030;21.952;2023-06-01T10:24:31;98651.35;;;24.11;35.10
57847;BME280;43675;50.030;21.952;2023-06-01T10:27:15;98650.66;;;24.13;35.11
57847;BME280;43675;50.030;21.952;2023-06-01T10:29:43;98647.28;;;24.17;35.48
57847;BME280;43675;50.030;21.952;2023-06-01T10:32:47;98647.14;;;24.21;34.92
57847;BME280;43675;50.030;21.952;2023-06-01T10:40:37;98642.52;;;24.19;34.72
57847;BME280;43675;50.030;21.952;2023-06-01T10:43:03;98641.14;;;24.19;34.73
57847;BME280;43675;50.030;21.952;2023-06-01T10:48:01;98637.98;;;24.14;34.58
57847;BME280;43675;50.030;21.952;2023-06-01T10:50:28;98639.34;;;24.15;34.86
57847;BME280;43675;50.030;21.952;2023-06-01T10:52:55;98635.33;;;24.19;34.50
57847;BME280;43675;50.030;21.952;2023-06-01T10:55:26;98632.13;;;24.18;34.28
57847;BME280;43675;50.030;21.952;2023-06-01T10:58:18;98630.80;;;24.13;34.06
57847;BME280;43675;50.030;21.952;2023-06-01T11:00:45;98626.55;;;24.12;34.54
57847;BME280;43675;50.030;21.952;2023-06-01T11:03:13;98623.35;;;24.14;34.73
57847;BME280;43675;50.030;21.952;2023-06-01T11:05:47;98616.74;;;24.21;34.78
57847;BME280;43675;50.030;21.952;2023-06-01T11:13:20;98609.85;;;24.58;34.74
57847;BME280;43675;50.030;21.952;2023-06-01T11:18:45;98604.79;;;24.78;34.21
57847;BME280;43675;50.030;21.952;2023-06-01T11:21:22;98602.38;;;24.82;33.69
57847;BME280;43675;50.030;21.952;2023-06-01T11:23:49;98598.89;;;24.79;33.27
57847;BME280;43675;50.030;21.952;2023-06-01T11:26:23;98597.77;;;24.76;33.31
57847;BME280;43675;50.030;21.952;2023-06-01T11:28:51;98596.27;;;24.74;33.71
57847;BME280;43675;50.030;21.952;2023-06-01T11:31:19;98594.66;;;24.79;33.61
57847;BME280;43675;50.030;21.952;2023-06-01T11:33:53;98593.89;;;24.85;33.30
57847;BME280;43675;50.030;21.952;2023-06-01T11:36:20;98589.09;;;24.91;32.63
57847;BME280;43675;50.030;21.952;2023-06-01T11:38:47;98585.99;;;24.92;32.39
57847;BME280;43675;50.030;21.952;2023-06-01T11:41:13;98581.33;;;24.94;32.81
57847;BME280;43675;50.030;21.952;2023-06-01T11:43:40;98579.36;;;24.99;32.36
57847;BME280;43675;50.030;21.952;2023-06-01T11:46:08;98574.11;;;25.00;32.50
57847;BME280;43675;50.030;21.952;2023-06-01T11:48:35;98575.67;;;25.06;32.49
57847;BME280;43675;50.030;21.952;2023-06-01T11:51:03;98570.47;;;25.05;32.37
57847;BME280;43675;50.030;21.952;2023-06-01T11:53:30;98566.79;;;25.01;32.02
57847;BME280;43675;50.030;21.952;2023-06-01T11:55:58;98561.54;;;25.03;32.45
57847;BME280;43675;50.030;21.952;2023-06-01T11:58:27;98557.44;;;25.13;32.59
57847;BME280;43675;50.030;21.952;2023-06-01T12:00:55;98550.70;;;25.23;32.26
57847;BME280;43675;50.030;21.952;2023-06-01T12:03:23;98551.23;;;25.30;31.99
57847;BME280;43675;50.030;21.952;2023-06-01T12:05:51;98544.73;;;25.39;31.81
57847;BME280;43675;50.030;21.952;2023-06-01T12:08:19;98543.79;;;25.51;32.17
57847;BME280;43675;50.030;21.952;2023-06-01T12:10:48;98542.23;;;25.61;31.93
57847;BME280;43675;50.030;21.952;2023-06-01T12:13:16;98540.33;;;25.62;31.27
57847;BME280;43675;50.030;21.952;2023-06-01T12:15:44;98540.79;;;25.63;30.97
57847;BME280;43675;50.030;21.952;2023-06-01T12:18:11;98536.56;;;25.63;30.72
57847;BME280;43675;50.030;21.952;2023-06-01T12:20:40;98535.55;;;25.68;31.04
57847;BME280;43675;50.030;21.952;2023-06-01T12:23:16;98530.61;;;25.73;30.95
57847;BME280;43675;50.030;21.952;2023-06-01T12:25:50;98527.30;;;25.80;30.71
57847;BME280;43675;50.030;21.952;2023-06-01T12:28:17;98524.71;;;25.84;30.46
57847;BME280;43675;50.030;21.952;2023-06-01T12:30:44;98522.19;;;25.84;31.04
57847;BME280;43675;50.030;21.952;2023-06-01T12:33:33;98520.14;;;25.80;31.08
57847;BME280;43675;50.030;21.952;2023-06-01T12:36:03;98518.45;;;25.80;31.06
57847;BME280;43675;50.030;21.952;2023-06-01T12:38:37;98518.54;;;25.75;31.08
57847;BME280;43675;50.030;21.952;2023-06-01T12:41:10;98514.73;;;25.77;31.21
57847;BME280;43675;50.030;21.952;2023-06-01T12:43:45;98518.09;;;25.80;31.25
57847;BME280;43675;50.030;21.952;2023-06-01T12:46:24;98513.48;;;25.77;30.88
57847;BME280;43675;50.030;21.952;2023-06-01T12:48:53;98509.05;;;25.64;30.55
57847;BME280;43675;50.030;21.952;2023-06-01T12:51:21;98513.54;;;25.65;31.01
57847;BME280;43675;50.030;21.952;2023-06-01T12:53:47;98511.96;;;25.72;30.95
57847;BME280;43675;50.030;21.952;2023-06-01T12:56:14;98505.59;;;25.80;30.68
57847;BME280;43675;50.030;21.952;2023-06-01T12:58:41;98503.35;;;25.87;30.45
57847;BME280;43675;50.030;21.952;2023-06-01T13:01:08;98499.43;;;25.96;30.68
57847;BME280;43675;50.030;21.952;2023-06-01T13:03:34;98496.16;;;26.04;30.46
57847;BME280;43675;50.030;21.952;2023-06-01T13:06:01;98493.02;;;26.15;30.58
57847;BME280;43675;50.030;21.952;2023-06-01T13:08:28;98489.66;;;26.27;30.54
57847;BME280;43675;50.030;21.952;2023-06-01T13:10:54;98486.92;;;26.34;30.33
57847;BME280;43675;50.030;21.952;2023-06-01T13:13:21;98481.71;;;26.40;30.06
57847;BME280;43675;50.030;21.952;2023-06-01T13:15:48;98475.03;;;26.50;29.83
57847;BME280;43675;50.030;21.952;2023-06-01T13:18:14;98472.46;;;26.63;29.76
57847;BME280;43675;50.030;21.952;2023-06-01T13:20:41;98470.36;;;26.77;29.35
57847;BME280;43675;50.030;21.952;2023-06-01T13:23:08;98463.36;;;26.89;29.27
57847;BME280;43675;50.030;21.952;2023-06-01T13:25:34;98464.99;;;26.90;28.68